Time;durP1;ratioP1;P1;durP2;ratioP2;P2;SDS_P1;SDS_P2;PMS_P1;PMS_P2;Temp;Humidity;BMP_temperature;BMP_pressure;BME280_temperature;BME280_humidity;BME280_pressure;Samples;Min_cycle;Max_cycle;Signal;HPM_P1;HPM_P2
2023/01/17 00:09:51;;;;;;;;;;;;;;;;;;5828693;22;19971;-96
2023/01/17 00:18:23;;;;;;;;;;;;;;;;;;;;;
2023/01/17 01:33:42;;;;;;;;;;;;;;;;;;5016511;28;19925;-92
2023/01/17 01:36:11;;;;;;;;;;;;;;;;;;5016355;28;20399;-94
2023/01/17 01:38:37;;;;;;;;;;;;;;;;;;5016616;28;20312;-94
2023/01/17 01:41:12;;;;;;;;;;;;;;;;;;5016707;28;19932;-95
2023/01/17 01:43:38;;;;;;;;;;;;;;;;;;5016239;28;19921;-93
2023/01/17 01:46:04;;;;;;;;;;;;;;;;;;5015844;28;20319;-92
2023/01/17 01:48:30;;;;;;;;;;;;;;;;;;5015742;28;19975;-95
2023/01/17 01:50:57;;;;;;;;;;;;;;;;;;5015951;28;19932;-92
2023/01/17 01:53:25;;;;;;;;;;;;;;;;;;5015931;28;19929;-94
2023/01/17 01:55:51;;;;;;;;;;;;;;;;;;5015297;28;19921;-93
2023/01/17 01:58:17;;;;;;;;;;;;;;;;;;5015347;28;19928;-93
2023/01/17 02:00:43;;;;;;;;;;;;;;;;;;5015782;28;19925;-94
2023/01/17 02:03:09;;;;;;;;;;;;;;;;;;5016029;28;19920;-94
2023/01/17 02:05:35;;;;;;;;;;;;;;;;;;5015898;28;19921;-95
2023/01/17 02:08:01;;;;;;;;;;;;;;;;;;5015641;28;19988;-94
2023/01/17 02:10:27;;;;;;;;;;;;;;;;;;5014928;28;19925;-93
2023/01/17 02:12:53;;;;;;;;;;;;;;;;;;5015584;28;19925;-95
2023/01/17 02:15:29;;;;;;;;;;;;;;;;;;5015545;28;19921;-93
2023/01/17 02:17:55;;;;;;;;;;;;;;;;;;5015189;28;20027;-93
2023/01/17 02:20:21;;;;;;;;;;;;;;;;;;5015303;28;19921;-94
2023/01/17 02:22:50;;;;;;;;;;;;;;;;;;5014980;28;19956;-95
2023/01/17 02:25:25;;;;;;;;;;;;;;;;;;5015150;28;19956;-95
2023/01/17 02:28:02;;;;;;;;;;;;;;;;;;5014999;28;19929;-96
2023/01/17 02:30:31;;;;;;;;;;;;;;;;;;5015196;28;19925;-95
2023/01/17 02:32:57;;;;;;;;;;;;;;;;;;5015376;28;19980;-95
2023/01/17 02:35:33;;;;;;;;;;;;;;;;;;;;;
2023/01/17 02:38:15;;;;;;;;;;;;;;;;;;5014968;28;19952;-96
2023/01/17 02:40:48;;;;;;;;;;;;;;;;;;5015177;28;20019;-96
2023/01/17 02:43:17;;;;;;;;;;;;;;;;;;5015476;28;20020;-96
2023/01/17 02:45:44;;;;;;;;;;;;;;;;;;5015645;28;19994;-94
2023/01/17 02:48:13;;;;;;;;;;;;;;;;;;5015389;28;19925;-95
2023/01/17 02:50:52;;;;;;;;;;;;;;;;;;5015481;28;20012;-96
2023/01/17 02:53:20;;;;;;;;;;;;;;;;;;5015201;28;19925;-95
2023/01/17 02:56:06;;;;;;;;;;;;;;;;;;;;;
2023/01/17 02:58:40;;;;;;;;;;;;;;;;;;5014675;28;19928;-95
2023/01/17 03:19:50;;;;;;;;;;;;;;;;;;4837137;29;19925;-95
2023/01/17 03:22:37;;;;;;;;;;;;;;;;;;4843762;29;19925;-93
2023/01/17 03:25:02;;;;;;;;;;;;;;;;;;4920201;28;19932;-95
2023/01/17 03:27:43;;;;;;;;;;;;;;;;;;4942344;28;20013;-96
2023/01/17 03:30:25;;;;;;;;;;;;;;;;;;;;;
2023/01/17 03:36:00;;;;;;;;;;;;;;;;;;4956987;28;19922;-95
2023/01/17 03:38:36;;;;;;;;;;;;;;;;;;;;;
2023/01/17 03:44:07;;;;;;;;;;;;;;;;;;;;;
2023/01/17 03:46:36;;;;;;;;;;;;;;;;;;5018692;28;19956;-96
2023/01/17 03:49:09;;;;;;;;;;;;;;;;;;5018384;28;20008;-96
2023/01/17 03:51:43;;;;;;;;;;;;;;;;;;5017711;28;19921;-96
2023/01/17 03:54:12;;;;;;;;;;;;;;;;;;5018917;28;20347;-96
2023/01/17 03:59:24;;;;;;;;;;;;;;;;;;5007913;28;19921;-93
2023/01/17 04:01:50;;;;;;;;;;;;;;;;;;5018495;28;19921;-94
2023/01/17 04:04:16;;;;;;;;;;;;;;;;;;5017713;28;19970;-94
2023/01/17 04:06:42;;;;;;;;;;;;;;;;;;5017887;28;19932;-95
2023/01/17 04:09:08;;;;;;;;;;;;;;;;;;5017833;28;19922;-95
2023/01/17 04:11:36;;;;;;;;;;;;;;;;;;5017431;28;19931;-94
2023/01/17 04:17:07;;;;;;;;;;;;;;;;;;;;;
2023/01/17 04:19:36;;;;;;;;;;;;;;;;;;5017861;28;19928;-93
2023/01/17 04:22:05;;;;;;;;;;;;;;;;;;5017388;28;19921;-95
2023/01/17 04:24:34;;;;;;;;;;;;;;;;;;5017439;28;20386;-95
2023/01/17 04:27:12;;;;;;;;;;;;;;;;;;5017571;28;20104;-94
2023/01/17 04:29:39;;;;;;;;;;;;;;;;;;5017455;28;19921;-94
2023/01/17 04:32:15;;;;;;;;;;;;;;;;;;;;;
2023/01/17 04:34:51;;;;;;;;;;;;;;;;;;;;;
2023/01/17 04:37:27;;;;;;;;;;;;;;;;;;;;;
2023/01/17 04:39:58;;;;;;;;;;;;;;;;;;5017618;28;19975;-96
2023/01/17 04:42:33;;;;;;;;;;;;;;;;;;5017279;28;20455;-95
2023/01/17 04:44:59;;;;;;;;;;;;;;;;;;5017635;28;19925;-94
2023/01/17 04:50:14;;;;;;;;;;;;;;;;;;5006393;28;19983;-94
2023/01/17 04:53:04;;;;;;;;;;;;;;;;;;5017424;28;19932;-95
2023/01/17 05:04:25;;;;;;;;;;;;;;;;;;;;;
2023/01/17 05:10:06;;;;;;;;;;;;;;;;;;;;;
2023/01/17 05:18:26;;;;;;;;;;;;;;;;;;;;;
2023/01/17 05:24:30;;;;;;;;;;;;;;;;;;;;;
2023/01/17 05:27:07;;;;;;;;;;;;;;;;;;4972996;28;20394;-95
2023/01/17 05:30:04;;;;;;;;;;;;;;;;;;;;;
2023/01/17 05:32:40;;;;;;;;;;;;;;;;;;4955659;28;19922;-95
2023/01/17 05:35:36;;;;;;;;;;;;;;;;;;4957436;28;19932;-94
2023/01/17 05:38:09;;;;;;;;;;;;;;;;;;4956430;28;19981;-94
2023/01/17 06:11:47;;;;;;;;;;;;;;;;;;5004896;28;19921;-94
2023/01/17 06:14:21;;;;;;;;;;;;;;;;;;4999325;28;19960;-93
2023/01/17 07:41:42;;;;;;;;;;;;;;;;;;5044642;28;19925;-94
2023/01/17 08:28:20;;;;;;;;;;;;;;;;;;5091319;22;19983;-95
2023/01/17 08:34:17;;;;;;;;;;;;;;;;;;5119362;22;19992;-96
2023/01/17 08:37:02;;;;;;;;;;;;;;;;;;5545521;22;20412;-95
2023/01/17 08:39:31;;;;;;;;;;;;;;;;;;4998098;28;19922;-92
2023/01/17 08:42:00;;;;;;;;;;;;;;;;;;5013354;28;20088;-94
2023/01/17 08:44:29;;;;;;;;;;;;;;;;;;5001318;28;19971;-95
2023/01/17 08:46:58;;;;;;;;;;;;;;;;;;4997922;28;20345;-93
2023/01/17 08:49:33;;;;;;;;;;;;;;;;;;5012927;28;19926;-94
2023/01/17 08:52:24;;;;;;;;;;;;;;;;;;;;;
2023/01/17 08:55:00;;;;;;;;;;;;;;;;;;;;;
2023/01/17 08:57:42;;;;;;;;;;;;;;;;;;5031113;28;19925;-94
2023/01/17 09:31:34;;;;;;;;;;;;;;;;;;6071955;22;20181;-93
2023/01/17 09:36:55;;;;;;;;;;;;;;;;;;4999025;28;20136;-91
2023/01/17 09:39:21;;;;;;;;;;;;;;;;;;4977904;28;19941;-91
2023/01/17 09:41:50;;;;;;;;;;;;;;;;;;4981797;28;19926;-94
2023/01/17 09:57:15;;;;;;;;;;;;;;;;;;5121060;23;19959;-91
2023/01/17 09:59:51;;;;;;;;;;;;;;;;;;;;;
2023/01/17 10:05:22;;;;;;;;;;;;;;;;;;5085773;22;19925;-94
2023/01/17 10:14:30;;;;;;;;;;;;;;;;;;5000394;22;20656;-93
2023/01/17 11:45:05;;;;;;;;;;;;;;;;;;5623940;22;19925;-94
2023/01/17 11:47:31;;;;;;;;;;;;;;;;;;5014462;28;19948;-94
2023/01/17 11:49:57;;;;;;;;;;;;;;;;;;4997876;28;19921;-93
2023/01/17 11:52:23;;;;;;;;;;;;;;;;;;4998118;28;19925;-95
2023/01/17 11:54:49;;;;;;;;;;;;;;;;;;4997877;28;20004;-93
2023/01/17 11:57:15;;;;;;;;;;;;;;;;;;4996337;28;19952;-93
2023/01/17 12:02:52;;;;;;;;;;;;;;;;;;;;;
2023/01/17 12:06:05;;;;;;;;;;;;;;;;;;;;;
2023/01/17 12:08:35;;;;;;;;;;;;;;;;;;5025353;28;19925;-93
2023/01/17 12:19:36;;;;;;;;;;;;;;;;;;;;;
2023/01/17 12:25:05;;;;;;;;;;;;;;;;;;;;;
2023/01/17 12:27:46;;;;;;;;;;;;;;;;;;5021206;28;19936;-95
2023/01/17 12:30:12;;;;;;;;;;;;;;;;;;5001336;28;19921;-94
2023/01/17 12:32:38;;;;;;;;;;;;;;;;;;5001326;28;20427;-96
2023/01/17 12:35:04;;;;;;;;;;;;;;;;;;5005098;28;20472;-95
2023/01/17 12:37:33;;;;;;;;;;;;;;;;;;5000572;28;19928;-94
2023/01/17 12:40:19;;;;;;;;;;;;;;;;;;5223388;22;19924;-96
2023/01/17 12:42:45;;;;;;;;;;;;;;;;;;5013382;28;19925;-96
2023/01/17 12:45:11;;;;;;;;;;;;;;;;;;4981220;28;19929;-95
2023/01/17 12:47:40;;;;;;;;;;;;;;;;;;4981834;28;20140;-95
2023/01/17 12:50:06;;;;;;;;;;;;;;;;;;5013925;28;19929;-94
2023/01/17 12:52:32;;;;;;;;;;;;;;;;;;5013332;28;20020;-94
2023/01/17 12:54:58;;;;;;;;;;;;;;;;;;5012909;28;19928;-93
2023/01/17 12:57:27;;;;;;;;;;;;;;;;;;5013049;28;19928;-94
2023/01/17 12:59:53;;;;;;;;;;;;;;;;;;5013575;28;19922;-94
2023/01/17 13:02:19;;;;;;;;;;;;;;;;;;5013453;28;19967;-93
2023/01/17 13:04:45;;;;;;;;;;;;;;;;;;5013640;28;19931;-94
2023/01/17 13:07:11;;;;;;;;;;;;;;;;;;5016038;28;20039;-94
2023/01/17 13:09:51;;;;;;;;;;;;;;;;;;5014823;28;19921;-94
2023/01/17 13:12:26;;;;;;;;;;;;;;;;;;5019718;28;20006;-95
2023/01/17 13:14:52;;;;;;;;;;;;;;;;;;5016555;28;19922;-94
2023/01/17 13:17:21;;;;;;;;;;;;;;;;;;5140488;23;19925;-90
2023/01/17 13:19:47;;;;;;;;;;;;;;;;;;4978123;28;19925;-90
2023/01/17 13:22:18;;;;;;;;;;;;;;;;;;4976616;28;19949;-91
2023/01/17 13:24:44;;;;;;;;;;;;;;;;;;4976933;28;19922;-91
2023/01/17 13:27:10;;;;;;;;;;;;;;;;;;4977388;28;19926;-93
2023/01/17 13:29:39;;;;;;;;;;;;;;;;;;4977532;28;20049;-90
2023/01/17 13:32:05;;;;;;;;;;;;;;;;;;4977674;28;19937;-94
2023/01/17 13:34:31;;;;;;;;;;;;;;;;;;4978822;28;19949;-92
2023/01/17 13:37:06;;;;;;;;;;;;;;;;;;4981754;28;19922;-92
2023/01/17 14:59:46;;;;;;;;;;;;;;;;;;4888063;29;20384;-91
2023/01/17 15:02:27;;;;;;;;;;;;;;;;;;;;;
2023/01/17 15:04:56;;;;;;;;;;;;;;;;;;4960267;28;19922;-95
2023/01/17 15:12:26;;;;;;;;;;;;;;;;;;5031393;28;19925;-95
2023/01/17 15:14:57;;;;;;;;;;;;;;;;;;5015192;28;20380;-95
2023/01/17 15:17:29;;;;;;;;;;;;;;;;;;5014900;28;20007;-95
2023/01/17 15:19:55;;;;;;;;;;;;;;;;;;5000160;28;20377;-95
2023/01/17 15:22:31;;;;;;;;;;;;;;;;;;;;;
2023/01/17 15:25:07;;;;;;;;;;;;;;;;;;5015750;28;19983;-95
2023/01/17 15:27:47;;;;;;;;;;;;;;;;;;4999152;28;19947;-96
2023/01/17 15:33:43;;;;;;;;;;;;;;;;;;5006404;28;19928;-96
2023/01/17 15:36:09;;;;;;;;;;;;;;;;;;5071627;23;19925;-94
2023/01/17 15:38:35;;;;;;;;;;;;;;;;;;4980993;28;19945;-93
2023/01/17 15:41:01;;;;;;;;;;;;;;;;;;4980026;28;20333;-94
2023/01/17 15:43:27;;;;;;;;;;;;;;;;;;4981822;28;19929;-93
2023/01/17 15:45:54;;;;;;;;;;;;;;;;;;4979160;28;19929;-94
2023/01/17 15:48:20;;;;;;;;;;;;;;;;;;4979670;28;19925;-95
2023/01/17 15:50:57;;;;;;;;;;;;;;;;;;4979311;28;19929;-94
2023/01/17 15:53:32;;;;;;;;;;;;;;;;;;4999298;28;19922;-96
2023/01/17 16:32:41;;;;;;;;;;;;;;;;;;6035542;22;19929;-93
2023/01/17 16:35:17;;;;;;;;;;;;;;;;;;5008503;28;19955;-91
2023/01/17 16:51:03;;;;;;;;;;;;;;;;;;5022111;28;20007;-94
2023/01/17 16:53:34;;;;;;;;;;;;;;;;;;5021228;28;20008;-96
2023/01/17 16:59:02;;;;;;;;;;;;;;;;;;5387706;23;19932;-94
2023/01/17 17:11:47;;;;;;;;;;;;;;;;;;5839138;22;19932;-94
2023/01/17 17:30:02;;;;;;;;;;;;;;;;;;6130619;22;19927;-93
2023/01/17 17:32:31;;;;;;;;;;;;;;;;;;5017320;28;19921;-92
2023/01/17 17:34:57;;;;;;;;;;;;;;;;;;5015997;28;20419;-93
2023/01/17 17:37:23;;;;;;;;;;;;;;;;;;5000513;28;19921;-91
2023/01/17 17:39:49;;;;;;;;;;;;;;;;;;4999267;28;19955;-92
2023/01/17 17:42:15;;;;;;;;;;;;;;;;;;4999418;28;20008;-92
2023/01/17 17:44:41;;;;;;;;;;;;;;;;;;4999619;28;19944;-92
2023/01/17 17:47:07;;;;;;;;;;;;;;;;;;4999726;28;19971;-93
2023/01/17 17:49:32;;;;;;;;;;;;;;;;;;5000102;28;19924;-93
2023/01/17 17:51:58;;;;;;;;;;;;;;;;;;4999752;28;19921;-92
2023/01/17 17:54:26;;;;;;;;;;;;;;;;;;4999751;28;19975;-93
2023/01/17 17:56:52;;;;;;;;;;;;;;;;;;4998865;28;20007;-93
2023/01/17 17:59:18;;;;;;;;;;;;;;;;;;5000031;28;19944;-93
2023/01/17 18:01:44;;;;;;;;;;;;;;;;;;4999633;28;19921;-92
2023/01/17 18:04:13;;;;;;;;;;;;;;;;;;5000120;28;19928;-92
2023/01/17 18:06:39;;;;;;;;;;;;;;;;;;4999177;28;19928;-92
2023/01/17 18:09:05;;;;;;;;;;;;;;;;;;4999516;28;20308;-92
2023/01/17 18:11:31;;;;;;;;;;;;;;;;;;4999853;28;20333;-92
2023/01/17 18:13:57;;;;;;;;;;;;;;;;;;4999418;28;20345;-91
2023/01/17 18:16:23;;;;;;;;;;;;;;;;;;4999183;28;19925;-91
2023/01/17 18:18:49;;;;;;;;;;;;;;;;;;4999388;28;20398;-92
2023/01/17 18:21:15;;;;;;;;;;;;;;;;;;4999256;28;20364;-92
2023/01/17 18:23:41;;;;;;;;;;;;;;;;;;5016270;28;19925;-92
2023/01/17 18:26:07;;;;;;;;;;;;;;;;;;4999581;28;19921;-92
2023/01/17 18:28:32;;;;;;;;;;;;;;;;;;4998980;28;19951;-92
2023/01/17 18:30:58;;;;;;;;;;;;;;;;;;4998957;28;19925;-92
2023/01/17 18:33:24;;;;;;;;;;;;;;;;;;4999007;28;20426;-92
2023/01/17 18:35:50;;;;;;;;;;;;;;;;;;4999259;28;19921;-94
2023/01/17 18:49:42;;;;;;;;;;;;;;;;;;6131381;22;19928;-89
2023/01/17 20:00:22;;;;;;;;;;;;;;;;;;4529091;23;20209;-89
2023/01/17 20:02:48;;;;;;;;;;;;;;;;;;4973508;28;19925;-93
2023/01/17 20:05:14;;;;;;;;;;;;;;;;;;4975612;28;20021;-93
2023/01/17 20:07:43;;;;;;;;;;;;;;;;;;4975788;28;20025;-93
2023/01/17 20:10:19;;;;;;;;;;;;;;;;;;4975515;28;19941;-93
2023/01/17 20:12:45;;;;;;;;;;;;;;;;;;4975907;28;19922;-93
2023/01/17 20:15:11;;;;;;;;;;;;;;;;;;4974853;28;19976;-94
2023/01/17 20:17:37;;;;;;;;;;;;;;;;;;4975415;28;20072;-92
2023/01/17 20:20:05;;;;;;;;;;;;;;;;;;4973596;28;20409;-93
2023/01/17 20:22:31;;;;;;;;;;;;;;;;;;4977613;28;20349;-93
2023/01/17 20:24:57;;;;;;;;;;;;;;;;;;4978944;28;20025;-94
2023/01/17 20:27:25;;;;;;;;;;;;;;;;;;4994551;28;19929;-93
2023/01/17 20:29:51;;;;;;;;;;;;;;;;;;4977932;28;20405;-94
2023/01/17 20:32:17;;;;;;;;;;;;;;;;;;4994805;28;19959;-93
2023/01/17 20:34:43;;;;;;;;;;;;;;;;;;4978740;28;19922;-92
2023/01/17 20:37:09;;;;;;;;;;;;;;;;;;4978699;28;20384;-89
2023/01/17 20:39:37;;;;;;;;;;;;;;;;;;4978993;28;19922;-90
2023/01/17 20:42:03;;;;;;;;;;;;;;;;;;4978456;28;19922;-92
2023/01/17 20:44:31;;;;;;;;;;;;;;;;;;4978732;28;19930;-90
2023/01/17 20:46:57;;;;;;;;;;;;;;;;;;4978044;28;19925;-91
2023/01/17 20:49:23;;;;;;;;;;;;;;;;;;4994484;28;19925;-91
2023/01/17 20:51:49;;;;;;;;;;;;;;;;;;4978049;28;19925;-90
2023/01/17 20:54:15;;;;;;;;;;;;;;;;;;4978103;28;20313;-92
2023/01/17 20:56:41;;;;;;;;;;;;;;;;;;4978033;28;20089;-90
2023/01/17 20:59:08;;;;;;;;;;;;;;;;;;4994107;28;20386;-90
2023/01/17 21:01:34;;;;;;;;;;;;;;;;;;4988458;28;19987;-90
2023/01/17 21:04:00;;;;;;;;;;;;;;;;;;5013190;28;19950;-90
2023/01/17 21:06:26;;;;;;;;;;;;;;;;;;4997922;28;19922;-91
2023/01/17 21:08:52;;;;;;;;;;;;;;;;;;4997406;28;19996;-92
2023/01/17 21:11:21;;;;;;;;;;;;;;;;;;5003829;28;19925;-94
2023/01/17 21:13:50;;;;;;;;;;;;;;;;;;4999611;28;19933;-94
2023/01/17 21:19:14;;;;;;;;;;;;;;;;;;4938779;29;19926;-94
2023/01/17 21:21:48;;;;;;;;;;;;;;;;;;5012787;28;19963;-94
2023/01/17 21:24:30;;;;;;;;;;;;;;;;;;;;;
2023/01/17 21:27:02;;;;;;;;;;;;;;;;;;5013702;28;19929;-95
2023/01/17 21:29:36;;;;;;;;;;;;;;;;;;4998212;28;19921;-95
2023/01/17 21:32:02;;;;;;;;;;;;;;;;;;5147328;23;19926;-95
2023/01/17 21:34:33;;;;;;;;;;;;;;;;;;5013607;28;19922;-94
2023/01/17 21:36:59;;;;;;;;;;;;;;;;;;5013617;28;19921;-92
2023/01/17 21:39:25;;;;;;;;;;;;;;;;;;5012921;28;20266;-90
2023/01/17 21:41:51;;;;;;;;;;;;;;;;;;5012197;28;19925;-89
2023/01/17 21:44:18;;;;;;;;;;;;;;;;;;5012818;28;20363;-89
2023/01/17 21:46:44;;;;;;;;;;;;;;;;;;5012721;28;20392;-89
2023/01/17 21:49:10;;;;;;;;;;;;;;;;;;5012435;28;19925;-89
2023/01/17 21:54:17;;;;;;;;;;;;;;;;;;5012153;28;20426;-89
2023/01/17 21:59:28;;;;;;;;;;;;;;;;;;5012111;28;19926;-89
2023/01/17 22:01:54;;;;;;;;;;;;;;;;;;5011995;28;19949;-89
2023/01/17 22:04:22;;;;;;;;;;;;;;;;;;5012529;28;19929;-89
2023/01/17 22:06:48;;;;;;;;;;;;;;;;;;5011843;28;20309;-89
2023/01/17 22:09:14;;;;;;;;;;;;;;;;;;5011847;28;19922;-89
2023/01/17 22:11:40;;;;;;;;;;;;;;;;;;5012174;28;19928;-89
2023/01/17 22:14:06;;;;;;;;;;;;;;;;;;5012271;28;19921;-90
2023/01/17 22:16:32;;;;;;;;;;;;;;;;;;5012113;28;20345;-89
2023/01/17 22:18:58;;;;;;;;;;;;;;;;;;5011812;28;20008;-89
2023/01/17 22:21:23;;;;;;;;;;;;;;;;;;5012046;28;20369;-88
2023/01/17 22:23:50;;;;;;;;;;;;;;;;;;5012110;28;20369;-89
2023/01/17 22:26:16;;;;;;;;;;;;;;;;;;5011842;28;19921;-88
2023/01/17 22:28:42;;;;;;;;;;;;;;;;;;5011755;28;19933;-90
2023/01/17 22:31:08;;;;;;;;;;;;;;;;;;5011880;28;20377;-88
2023/01/17 22:33:34;;;;;;;;;;;;;;;;;;5011466;28;19925;-89
2023/01/17 22:36:00;;;;;;;;;;;;;;;;;;5011664;28;19922;-89
2023/01/17 22:38:26;;;;;;;;;;;;;;;;;;5011791;28;19921;-89
2023/01/17 22:40:52;;;;;;;;;;;;;;;;;;5011831;28;19928;-89
2023/01/17 22:43:18;;;;;;;;;;;;;;;;;;5011565;28;20326;-89
2023/01/17 22:45:44;;;;;;;;;;;;;;;;;;5011664;28;20020;-88
2023/01/17 22:48:10;;;;;;;;;;;;;;;;;;5011475;28;20372;-89
2023/01/17 22:50:37;;;;;;;;;;;;;;;;;;5011362;28;19921;-88
2023/01/17 22:53:03;;;;;;;;;;;;;;;;;;5011894;28;20332;-89
2023/01/17 22:55:28;;;;;;;;;;;;;;;;;;5011664;28;19944;-88
2023/01/17 22:57:55;;;;;;;;;;;;;;;;;;5011184;28;19925;-89
2023/01/17 23:00:21;;;;;;;;;;;;;;;;;;5011176;28;20020;-88
2023/01/17 23:02:47;;;;;;;;;;;;;;;;;;5011148;28;19972;-88
2023/01/17 23:05:13;;;;;;;;;;;;;;;;;;5011101;28;20365;-88
2023/01/17 23:07:42;;;;;;;;;;;;;;;;;;5011087;28;20032;-89
2023/01/17 23:10:08;;;;;;;;;;;;;;;;;;5011309;28;20012;-89
2023/01/17 23:12:34;;;;;;;;;;;;;;;;;;5011212;28;19984;-88
2023/01/17 23:20:34;;;;;;;;;;;;;;;;;;4992791;28;19991;-88
2023/01/17 23:22:59;;;;;;;;;;;;;;;;;;5011354;28;20381;-88
2023/01/17 23:25:25;;;;;;;;;;;;;;;;;;5011251;28;19928;-88
2023/01/17 23:28:10;;;;;;;;;;;;;;;;;;5011054;28;19932;-88
2023/01/17 23:30:36;;;;;;;;;;;;;;;;;;5011382;28;20112;-88
2023/01/17 23:33:02;;;;;;;;;;;;;;;;;;5010830;28;20009;-88
2023/01/17 23:35:28;;;;;;;;;;;;;;;;;;5011081;28;19925;-89
2023/01/17 23:40:38;;;;;;;;;;;;;;;;;;5010999;28;20222;-89
2023/01/17 23:43:23;;;;;;;;;;;;;;;;;;5011044;28;19922;-89
2023/01/17 23:45:49;;;;;;;;;;;;;;;;;;5011189;28;19922;-88
2023/01/17 23:48:15;;;;;;;;;;;;;;;;;;5010854;28;19925;-89
2023/01/17 23:50:41;;;;;;;;;;;;;;;;;;5010938;28;19928;-89
2023/01/17 23:53:06;;;;;;;;;;;;;;;;;;5011160;28;20258;-89
2023/01/17 23:55:32;;;;;;;;;;;;;;;;;;5012238;28;19932;-89
2023/01/17 23:57:58;;;;;;;;;;;;;;;;;;5014398;28;20339;-88
